Aaron Joseph — WCV9877 — position and weather

sailwx.info

Track history (hours):
 
Tides and Currents Weather Stations Pressure Air Temp Water Temp Dewpoint Dewpoint Depression Visibility Wind Speed Wind Dir Waves Ship Positions

Aaron Joseph

Owner: AARON JOSEPH INC, GOLDEN MEADOW, LA. More information available from US FCC via Universal Licensing System and Coast Guard Vessel Documentation Center.

Last reported at 2014-Nov-21 11:32 UTC. Time now 2014-Nov-22 02:55 UTC.
Position N 29°36' W 090°40'.

; draft 2.5 m.

Type: Tug. MMSI: 367028680.

Date/timePositionNaut miles runAvg speedWind from/ knotsBaromVisibWave heightAir tempDewpointWater temp
2014-Nov-21 11:32N 29°36' W 090°40'10 1.7
2014-Nov-21 05:27N 29°26' W 090°43'4 4.9
2014-Nov-21 04:33N 29°22' W 090°44'18 0.4
2014-Nov-19 07:14N 29°34' W 090°28'6 7.4
2014-Nov-19 06:27N 29°34' W 090°35'3 0.1
2014-Nov-18 07:20N 29°35' W 090°38'8 2.5
2014-Nov-18 04:09N 29°37' W 090°29'1 1.7
2014-Nov-18 03:15N 29°36' W 090°28'3 4.1
2014-Nov-18 02:31N 29°35' W 090°25'2 0.1
2014-Nov-17 10:14N 29°33' W 090°25'9 8.3
2014-Nov-17 09:11N 29°34' W 090°34'5 0.3
2014-Nov-16 14:13N 29°36' W 090°40'4 1.3
2014-Nov-16 11:28N 29°35' W 090°36'9 0.5
2014-Nov-15 15:26N 29°33' W 090°26'7 7.9
2014-Nov-15 14:31N 29°34' W 090°34'2 1.5
2014-Nov-15 13:30N 29°35' W 090°36'0 0.0
2014-Nov-15 12:17N 29°35' W 090°36'0 0.0
2014-Nov-15 11:11N 29°35' W 090°36'0 0.0
2014-Nov-15 10:26N 29°35' W 090°36'0 0.0
2014-Nov-15 09:28N 29°35' W 090°36'0 0.0
2014-Nov-15 08:32N 29°35' W 090°36'0 0.0
2014-Nov-15 07:23N 29°35' W 090°36'0 0.0
2014-Nov-15 06:32N 29°35' W 090°36'0 0.0
2014-Nov-15 05:27N 29°35' W 090°36'0 0.0
2014-Nov-15 04:32N 29°35' W 090°36'0 0.0
2014-Nov-15 03:20N 29°35' W 090°36'0 0.0
2014-Nov-15 02:28N 29°35' W 090°36'0 0.0
2014-Nov-15 01:33N 29°35' W 090°36'0 0.0
2014-Nov-15 00:32N 29°35' W 090°36'0 0.0
2014-Nov-14 23:32N 29°35' W 090°36'0 0.0
2014-Nov-14 22:25N 29°35' W 090°36'0 0.0
2014-Nov-14 21:33N 29°35' W 090°36'0 0.0
2014-Nov-14 18:32N 29°35' W 090°36'0 0.1
2014-Nov-14 15:24N 29°35' W 090°36'4 1.0
2014-Nov-14 11:31N 29°36' W 090°40'0 0.0
2014-Nov-14 09:06N 29°36' W 090°40'0 0.0
2014-Nov-14 07:28N 29°36' W 090°40'0 0.0
2014-Nov-14 04:15N 29°36' W 090°40'0 0.0
2014-Nov-14 03:24N 29°36' W 090°40'0 0.0
2014-Nov-14 00:25N 29°36' W 090°40'0 0.0
2014-Nov-13 23:26N 29°36' W 090°40'0 0.1
2014-Nov-13 22:33N 29°36' W 090°40'0 0.0
2014-Nov-13 21:20N 29°36' W 090°40'0 0.0
2014-Nov-13 20:16N 29°36' W 090°40'0 0.0
2014-Nov-13 19:20N 29°36' W 090°40'0 0.0
2014-Nov-13 17:30N 29°36' W 090°40'0 0.0
2014-Nov-13 16:32N 29°36' W 090°40'0 0.0
2014-Nov-13 14:26N 29°36' W 090°40'0 0.0
2014-Nov-13 13:27N 29°36' W 090°40'0 0.0
2014-Nov-13 12:33N 29°36' W 090°40'0 0.0
2014-Nov-13 11:28N 29°36' W 090°40'0 0.0
2014-Nov-13 09:28N 29°36' W 090°40'9 0.3
2014-Nov-11 23:11N 29°34' W 090°30'5 5.3
2014-Nov-11 22:09N 29°35' W 090°36'0 0.0
2014-Nov-11 21:32N 29°35' W 090°36'0 0.3
2014-Nov-11 20:33N 29°35' W 090°36'0 0.0
2014-Nov-11 19:27N 29°35' W 090°36'0 0.0
2014-Nov-11 18:29N 29°35' W 090°36'0 0.0
2014-Nov-11 17:29N 29°35' W 090°36'0 0.0
2014-Nov-11 16:30N 29°35' W 090°36'0 0.0
2014-Nov-11 15:27N 29°35' W 090°36'  
Track history (hours):
 
Tides and Currents Weather Stations Pressure Air Temp Water Temp Dewpoint Dewpoint Depression Visibility Wind Speed Wind Dir Waves Ship Positions

Aaron Joseph

Owner: AARON JOSEPH INC, GOLDEN MEADOW, LA. More information available from US FCC via Universal Licensing System and Coast Guard Vessel Documentation Center.

Last reported at 2014-Nov-21 11:32 UTC. Time now 2014-Nov-22 02:55 UTC.
Position N 29°36' W 090°40'.

; draft 2.5 m.

Type: Tug. MMSI: 367028680.

Date/timePositionNaut miles runAvg speedWind from/ knotsBaromVisibWave heightAir tempDewpointWater temp
2014-Nov-21 11:32N 29°36' W 090°40'10 1.7
2014-Nov-21 05:27N 29°26' W 090°43'4 4.9
2014-Nov-21 04:33N 29°22' W 090°44'18 0.4
2014-Nov-19 07:14N 29°34' W 090°28'6 7.4
2014-Nov-19 06:27N 29°34' W 090°35'3 0.1
2014-Nov-18 07:20N 29°35' W 090°38'8 2.5
2014-Nov-18 04:09N 29°37' W 090°29'1 1.7
2014-Nov-18 03:15N 29°36' W 090°28'3 4.1
2014-Nov-18 02:31N 29°35' W 090°25'2 0.1
2014-Nov-17 10:14N 29°33' W 090°25'9 8.3
2014-Nov-17 09:11N 29°34' W 090°34'5 0.3
2014-Nov-16 14:13N 29°36' W 090°40'4 1.3
2014-Nov-16 11:28N 29°35' W 090°36'9 0.5
2014-Nov-15 15:26N 29°33' W 090°26'7 7.9
2014-Nov-15 14:31N 29°34' W 090°34'2 1.5
2014-Nov-15 13:30N 29°35' W 090°36'0 0.0
2014-Nov-15 12:17N 29°35' W 090°36'0 0.0
2014-Nov-15 11:11N 29°35' W 090°36'0 0.0
2014-Nov-15 10:26N 29°35' W 090°36'0 0.0
2014-Nov-15 09:28N 29°35' W 090°36'0 0.0
2014-Nov-15 08:32N 29°35' W 090°36'0 0.0
2014-Nov-15 07:23N 29°35' W 090°36'0 0.0
2014-Nov-15 06:32N 29°35' W 090°36'0 0.0
2014-Nov-15 05:27N 29°35' W 090°36'0 0.0
2014-Nov-15 04:32N 29°35' W 090°36'0 0.0
2014-Nov-15 03:20N 29°35' W 090°36'0 0.0
2014-Nov-15 02:28N 29°35' W 090°36'0 0.0
2014-Nov-15 01:33N 29°35' W 090°36'0 0.0
2014-Nov-15 00:32N 29°35' W 090°36'0 0.0
2014-Nov-14 23:32N 29°35' W 090°36'0 0.0
2014-Nov-14 22:25N 29°35' W 090°36'0 0.0
2014-Nov-14 21:33N 29°35' W 090°36'0 0.0
2014-Nov-14 18:32N 29°35' W 090°36'0 0.1
2014-Nov-14 15:24N 29°35' W 090°36'4 1.0
2014-Nov-14 11:31N 29°36' W 090°40'0 0.0
2014-Nov-14 09:06N 29°36' W 090°40'0 0.0
2014-Nov-14 07:28N 29°36' W 090°40'0 0.0
2014-Nov-14 04:15N 29°36' W 090°40'0 0.0
2014-Nov-14 03:24N 29°36' W 090°40'0 0.0
2014-Nov-14 00:25N 29°36' W 090°40'0 0.0
2014-Nov-13 23:26N 29°36' W 090°40'0 0.1
2014-Nov-13 22:33N 29°36' W 090°40'0 0.0
2014-Nov-13 21:20N 29°36' W 090°40'0 0.0
2014-Nov-13 20:16N 29°36' W 090°40'0 0.0
2014-Nov-13 19:20N 29°36' W 090°40'0 0.0
2014-Nov-13 17:30N 29°36' W 090°40'0 0.0
2014-Nov-13 16:32N 29°36' W 090°40'0 0.0
2014-Nov-13 14:26N 29°36' W 090°40'0 0.0
2014-Nov-13 13:27N 29°36' W 090°40'0 0.0
2014-Nov-13 12:33N 29°36' W 090°40'0 0.0
2014-Nov-13 11:28N 29°36' W 090°40'0 0.0
2014-Nov-13 09:28N 29°36' W 090°40'9 0.3
2014-Nov-11 23:11N 29°34' W 090°30'5 5.3
2014-Nov-11 22:09N 29°35' W 090°36'0 0.0
2014-Nov-11 21:32N 29°35' W 090°36'0 0.3
2014-Nov-11 20:33N 29°35' W 090°36'0 0.0
2014-Nov-11 19:27N 29°35' W 090°36'0 0.0
2014-Nov-11 18:29N 29°35' W 090°36'0 0.0
2014-Nov-11 17:29N 29°35' W 090°36'0 0.0
2014-Nov-11 16:30N 29°35' W 090°36'0 0.0
2014-Nov-11 15:27N 29°35' W 090°36'  

Dump ship's entire track history